sensor_id;sensor_type;location;lat;lon;timestamp;P1;durP1;ratioP1;P2;durP2;ratioP2
68938;SDS011;59064;45.294;11.816;2023-04-24T00:01:47;32.50;;;19.50;;
68938;SDS011;59064;45.294;11.816;2023-04-24T00:04:13;35.20;;;21.00;;
68938;SDS011;59064;45.294;11.816;2023-04-24T00:06:41;34.00;;;20.80;;
68938;SDS011;59064;45.294;11.816;2023-04-24T00:09:15;31.90;;;19.80;;
68938;SDS011;59064;45.294;11.816;2023-04-24T00:11:41;33.00;;;21.10;;
68938;SDS011;59064;45.294;11.816;2023-04-24T00:14:07;29.30;;;20.50;;
68938;SDS011;59064;45.294;11.816;2023-04-24T00:16:33;27.10;;;18.70;;
68938;SDS011;59064;45.294;11.816;2023-04-24T00:18:59;29.00;;;18.60;;
68938;SDS011;59064;45.294;11.816;2023-04-24T00:21:26;31.50;;;19.00;;
68938;SDS011;59064;45.294;11.816;2023-04-24T00:23:52;27.70;;;18.20;;
68938;SDS011;59064;45.294;11.816;2023-04-24T00:26:18;31.40;;;18.80;;
68938;SDS011;59064;45.294;11.816;2023-04-24T00:28:43;29.00;;;18.40;;
68938;SDS011;59064;45.294;11.816;2023-04-24T00:31:09;29.10;;;18.00;;
68938;SDS011;59064;45.294;11.816;2023-04-24T00:33:34;32.00;;;19.70;;
68938;SDS011;59064;45.294;11.816;2023-04-24T00:36:01;30.40;;;16.30;;
68938;SDS011;59064;45.294;11.816;2023-04-24T00:38:27;25.30;;;14.80;;
68938;SDS011;59064;45.294;11.816;2023-04-24T00:40:52;25.10;;;16.10;;
68938;SDS011;59064;45.294;11.816;2023-04-24T00:43:19;32.20;;;17.90;;
68938;SDS011;59064;45.294;11.816;2023-04-24T00:45:44;27.70;;;17.40;;
68938;SDS011;59064;45.294;11.816;2023-04-24T00:48:11;26.50;;;17.00;;
68938;SDS011;59064;45.294;11.816;2023-04-24T00:50:37;28.90;;;17.20;;
68938;SDS011;59064;45.294;11.816;2023-04-24T00:53:03;24.90;;;15.50;;
68938;SDS011;59064;45.294;11.816;2023-04-24T00:55:29;24.80;;;16.50;;
68938;SDS011;59064;45.294;11.816;2023-04-24T00:57:56;26.90;;;15.00;;
68938;SDS011;59064;45.294;11.816;2023-04-24T01:00:22;27.90;;;18.20;;
68938;SDS011;59064;45.294;11.816;2023-04-24T01:02:48;25.60;;;17.00;;
68938;SDS011;59064;45.294;11.816;2023-04-24T01:05:14;28.20;;;17.80;;
68938;SDS011;59064;45.294;11.816;2023-04-24T01:07:44;26.30;;;17.40;;
68938;SDS011;59064;45.294;11.816;2023-04-24T01:10:14;29.50;;;17.40;;
68938;SDS011;59064;45.294;11.816;2023-04-24T01:12:40;30.40;;;19.20;;
68938;SDS011;59064;45.294;11.816;2023-04-24T01:15:06;33.50;;;19.60;;
68938;SDS011;59064;45.294;11.816;2023-04-24T01:17:35;29.80;;;18.00;;
68938;SDS011;59064;45.294;11.816;2023-04-24T01:20:01;29.20;;;17.90;;
68938;SDS011;59064;45.294;11.816;2023-04-24T01:22:29;28.80;;;15.90;;
68938;SDS011;59064;45.294;11.816;2023-04-24T01:24:57;28.40;;;17.50;;
68938;SDS011;59064;45.294;11.816;2023-04-24T01:27:23;28.20;;;17.50;;
68938;SDS011;59064;45.294;11.816;2023-04-24T01:29:50;27.60;;;18.00;;
68938;SDS011;59064;45.294;11.816;2023-04-24T01:32:17;24.20;;;16.70;;
68938;SDS011;59064;45.294;11.816;2023-04-24T01:34:43;26.10;;;16.80;;
68938;SDS011;59064;45.294;11.816;2023-04-24T01:37:10;27.40;;;18.10;;
68938;SDS011;59064;45.294;11.816;2023-04-24T01:39:35;31.40;;;19.30;;
68938;SDS011;59064;45.294;11.816;2023-04-24T01:42:01;28.70;;;18.10;;
68938;SDS011;59064;45.294;11.816;2023-04-24T01:44:30;31.20;;;17.40;;
68938;SDS011;59064;45.294;11.816;2023-04-24T01:46:56;25.60;;;18.70;;
68938;SDS011;59064;45.294;11.816;2023-04-24T01:49:25;28.60;;;18.40;;
68938;SDS011;59064;45.294;11.816;2023-04-24T01:51:51;34.30;;;18.50;;
68938;SDS011;59064;45.294;11.816;2023-04-24T01:54:21;27.50;;;17.80;;
68938;SDS011;59064;45.294;11.816;2023-04-24T01:56:49;25.40;;;16.20;;
68938;SDS011;59064;45.294;11.816;2023-04-24T01:59:15;26.90;;;17.00;;
68938;SDS011;59064;45.294;11.816;2023-04-24T02:01:43;31.00;;;16.90;;
68938;SDS011;59064;45.294;11.816;2023-04-24T02:04:09;24.80;;;17.70;;
68938;SDS011;59064;45.294;11.816;2023-04-24T02:06:38;27.20;;;17.10;;
68938;SDS011;59064;45.294;11.816;2023-04-24T02:09:04;30.00;;;17.60;;
68938;SDS011;59064;45.294;11.816;2023-04-24T02:11:30;27.00;;;17.50;;
68938;SDS011;59064;45.294;11.816;2023-04-24T02:13:55;25.90;;;16.00;;
68938;SDS011;59064;45.294;11.816;2023-04-24T02:16:22;27.10;;;18.10;;
68938;SDS011;59064;45.294;11.816;2023-04-24T02:18:48;26.40;;;16.70;;
68938;SDS011;59064;45.294;11.816;2023-04-24T02:21:13;30.20;;;16.10;;
68938;SDS011;59064;45.294;11.816;2023-04-24T02:23:40;24.30;;;16.30;;
68938;SDS011;59064;45.294;11.816;2023-04-24T02:26:06;26.00;;;16.90;;
68938;SDS011;59064;45.294;11.816;2023-04-24T02:28:31;24.80;;;16.20;;
68938;SDS011;59064;45.294;11.816;2023-04-24T02:30:57;21.70;;;15.00;;
68938;SDS011;59064;45.294;11.816;2023-04-24T02:33:23;22.10;;;15.60;;
68938;SDS011;59064;45.294;11.816;2023-04-24T02:35:49;23.90;;;15.60;;
68938;SDS011;59064;45.294;11.816;2023-04-24T02:38:14;22.70;;;15.40;;
68938;SDS011;59064;45.294;11.816;2023-04-24T02:40:41;24.60;;;15.80;;
68938;SDS011;59064;45.294;11.816;2023-04-24T02:43:08;26.10;;;16.00;;
68938;SDS011;59064;45.294;11.816;2023-04-24T02:45:34;23.50;;;16.30;;
68938;SDS011;59064;45.294;11.816;2023-04-24T02:48:00;20.20;;;12.80;;
68938;SDS011;59064;45.294;11.816;2023-04-24T02:50:25;23.60;;;14.30;;
68938;SDS011;59064;45.294;11.816;2023-04-24T02:52:51;26.40;;;16.10;;
68938;SDS011;59064;45.294;11.816;2023-04-24T02:55:16;24.90;;;15.90;;
68938;SDS011;59064;45.294;11.816;2023-04-24T02:57:42;23.90;;;15.00;;
68938;SDS011;59064;45.294;11.816;2023-04-24T03:00:08;23.60;;;15.00;;
68938;SDS011;59064;45.294;11.816;2023-04-24T03:02:38;21.90;;;15.70;;
68938;SDS011;59064;45.294;11.816;2023-04-24T03:05:04;24.50;;;16.00;;
68938;SDS011;59064;45.294;11.816;2023-04-24T03:07:34;23.30;;;15.50;;
68938;SDS011;59064;45.294;11.816;2023-04-24T03:10:00;17.80;;;11.40;;
68938;SDS011;59064;45.294;11.816;2023-04-24T03:12:25;22.00;;;14.40;;
68938;SDS011;59064;45.294;11.816;2023-04-24T03:14:51;24.70;;;15.20;;
68938;SDS011;59064;45.294;11.816;2023-04-24T03:17:17;23.80;;;15.50;;
68938;SDS011;59064;45.294;11.816;2023-04-24T03:19:44;25.20;;;15.60;;
68938;SDS011;59064;45.294;11.816;2023-04-24T03:22:11;20.40;;;14.70;;
68938;SDS011;59064;45.294;11.816;2023-04-24T03:24:37;20.00;;;13.60;;
68938;SDS011;59064;45.294;11.816;2023-04-24T03:27:03;20.00;;;13.40;;
68938;SDS011;59064;45.294;11.816;2023-04-24T03:29:28;20.70;;;13.20;;
68938;SDS011;59064;45.294;11.816;2023-04-24T03:31:54;22.00;;;13.90;;
68938;SDS011;59064;45.294;11.816;2023-04-24T03:34:20;23.50;;;13.90;;
68938;SDS011;59064;45.294;11.816;2023-04-24T03:36:46;20.60;;;13.20;;
68938;SDS011;59064;45.294;11.816;2023-04-24T03:39:15;19.50;;;13.20;;
68938;SDS011;59064;45.294;11.816;2023-04-24T03:41:42;20.20;;;14.30;;
68938;SDS011;59064;45.294;11.816;2023-04-24T03:44:08;22.00;;;14.60;;
68938;SDS011;59064;45.294;11.816;2023-04-24T03:46:33;19.60;;;13.60;;
68938;SDS011;59064;45.294;11.816;2023-04-24T03:49:00;19.30;;;12.80;;
68938;SDS011;59064;45.294;11.816;2023-04-24T03:51:27;22.30;;;13.90;;
68938;SDS011;59064;45.294;11.816;2023-04-24T03:53:53;21.50;;;14.90;;
68938;SDS011;59064;45.294;11.816;2023-04-24T03:56:19;21.60;;;14.60;;
68938;SDS011;59064;45.294;11.816;2023-04-24T03:58:45;21.40;;;15.00;;
68938;SDS011;59064;45.294;11.816;2023-04-24T04:01:11;25.20;;;16.90;;
68938;SDS011;59064;45.294;11.816;2023-04-24T04:03:37;26.60;;;17.10;;
68938;SDS011;59064;45.294;11.816;2023-04-24T04:06:03;23.50;;;16.10;;
68938;SDS011;59064;45.294;11.816;2023-04-24T04:08:29;21.30;;;13.70;;
68938;SDS011;59064;45.294;11.816;2023-04-24T04:10:55;20.60;;;13.30;;
68938;SDS011;59064;45.294;11.816;2023-04-24T04:13:21;26.80;;;15.50;;
68938;SDS011;59064;45.294;11.816;2023-04-24T04:15:47;29.90;;;17.30;;
68938;SDS011;59064;45.294;11.816;2023-04-24T04:18:13;21.60;;;14.50;;
68938;SDS011;59064;45.294;11.816;2023-04-24T04:20:38;24.40;;;15.20;;
68938;SDS011;59064;45.294;11.816;2023-04-24T04:23:04;30.00;;;18.10;;
68938;SDS011;59064;45.294;11.816;2023-04-24T04:25:29;29.00;;;18.30;;
68938;SDS011;59064;45.294;11.816;2023-04-24T04:27:55;29.20;;;19.10;;
68938;SDS011;59064;45.294;11.816;2023-04-24T04:30:21;24.10;;;15.60;;
68938;SDS011;59064;45.294;11.816;2023-04-24T04:32:47;24.40;;;15.90;;
68938;SDS011;59064;45.294;11.816;2023-04-24T04:35:13;26.90;;;18.10;;
68938;SDS011;59064;45.294;11.816;2023-04-24T04:37:41;26.40;;;17.30;;
68938;SDS011;59064;45.294;11.816;2023-04-24T04:40:07;24.70;;;16.30;;
68938;SDS011;59064;45.294;11.816;2023-04-24T04:42:36;27.60;;;18.10;;
68938;SDS011;59064;45.294;11.816;2023-04-24T04:45:06;27.40;;;18.70;;
68938;SDS011;59064;45.294;11.816;2023-04-24T04:47:34;29.60;;;18.20;;
68938;SDS011;59064;45.294;11.816;2023-04-24T04:50:00;25.00;;;16.60;;
68938;SDS011;59064;45.294;11.816;2023-04-24T04:52:29;21.40;;;14.50;;
68938;SDS011;59064;45.294;11.816;2023-04-24T04:54:57;27.80;;;17.60;;
68938;SDS011;59064;45.294;11.816;2023-04-24T04:57:22;25.40;;;15.20;;
68938;SDS011;59064;45.294;11.816;2023-04-24T04:59:48;26.60;;;17.30;;
68938;SDS011;59064;45.294;11.816;2023-04-24T05:02:15;27.20;;;17.60;;
68938;SDS011;59064;45.294;11.816;2023-04-24T05:04:40;25.70;;;16.60;;
68938;SDS011;59064;45.294;11.816;2023-04-24T05:07:06;27.30;;;18.20;;
68938;SDS011;59064;45.294;11.816;2023-04-24T05:09:35;27.60;;;17.30;;
68938;SDS011;59064;45.294;11.816;2023-04-24T05:12:10;27.40;;;16.40;;
68938;SDS011;59064;45.294;11.816;2023-04-24T05:14:35;26.20;;;17.50;;
68938;SDS011;59064;45.294;11.816;2023-04-24T05:17:01;29.20;;;16.60;;
68938;SDS011;59064;45.294;11.816;2023-04-24T05:19:33;24.10;;;14.80;;
68938;SDS011;59064;45.294;11.816;2023-04-24T05:22:01;24.40;;;14.90;;
68938;SDS011;59064;45.294;11.816;2023-04-24T05:24:29;31.00;;;18.90;;
68938;SDS011;59064;45.294;11.816;2023-04-24T05:26:56;24.90;;;16.50;;
68938;SDS011;59064;45.294;11.816;2023-04-24T05:29:24;29.60;;;18.00;;
68938;SDS011;59064;45.294;11.816;2023-04-24T05:31:51;31.20;;;19.00;;
68938;SDS011;59064;45.294;11.816;2023-04-24T05:34:18;26.40;;;17.90;;
68938;SDS011;59064;45.294;11.816;2023-04-24T05:36:45;25.00;;;16.70;;
68938;SDS011;59064;45.294;11.816;2023-04-24T05:39:11;28.00;;;17.60;;
68938;SDS011;59064;45.294;11.816;2023-04-24T05:41:39;29.40;;;18.00;;
68938;SDS011;59064;45.294;11.816;2023-04-24T05:44:05;30.30;;;19.00;;
68938;SDS011;59064;45.294;11.816;2023-04-24T05:46:31;28.30;;;17.80;;
68938;SDS011;59064;45.294;11.816;2023-04-24T05:48:58;28.60;;;19.00;;
68938;SDS011;59064;45.294;11.816;2023-04-24T05:51:24;27.10;;;17.30;;
68938;SDS011;59064;45.294;11.816;2023-04-24T05:53:49;27.90;;;17.60;;
68938;SDS011;59064;45.294;11.816;2023-04-24T05:56:16;26.00;;;16.90;;
68938;SDS011;59064;45.294;11.816;2023-04-24T05:58:42;26.40;;;16.00;;
68938;SDS011;59064;45.294;11.816;2023-04-24T06:01:07;26.20;;;15.60;;
68938;SDS011;59064;45.294;11.816;2023-04-24T06:03:38;23.40;;;14.90;;
68938;SDS011;59064;45.294;11.816;2023-04-24T06:06:05;22.40;;;13.90;;
68938;SDS011;59064;45.294;11.816;2023-04-24T06:08:32;19.80;;;14.00;;
68938;SDS011;59064;45.294;11.816;2023-04-24T06:11:01;21.80;;;13.50;;
68938;SDS011;59064;45.294;11.816;2023-04-24T06:13:27;20.60;;;12.40;;
68938;SDS011;59064;45.294;11.816;2023-04-24T06:15:54;15.70;;;11.70;;
68938;SDS011;59064;45.294;11.816;2023-04-24T06:18:21;16.50;;;12.30;;
68938;SDS011;59064;45.294;11.816;2023-04-24T06:20:47;16.50;;;10.50;;
68938;SDS011;59064;45.294;11.816;2023-04-24T06:23:13;18.00;;;11.20;;
68938;SDS011;59064;45.294;11.816;2023-04-24T06:25:38;16.00;;;10.30;;
68938;SDS011;59064;45.294;11.816;2023-04-24T06:28:04;17.10;;;9.70;;
68938;SDS011;59064;45.294;11.816;2023-04-24T06:30:30;16.10;;;8.90;;
68938;SDS011;59064;45.294;11.816;2023-04-24T06:32:56;14.30;;;8.90;;
68938;SDS011;59064;45.294;11.816;2023-04-24T06:35:23;14.30;;;9.80;;
68938;SDS011;59064;45.294;11.816;2023-04-24T06:37:48;14.20;;;9.30;;
68938;SDS011;59064;45.294;11.816;2023-04-24T06:40:14;15.50;;;7.50;;
68938;SDS011;59064;45.294;11.816;2023-04-24T06:42:42;13.40;;;9.40;;
68938;SDS011;59064;45.294;11.816;2023-04-24T06:45:08;11.20;;;7.50;;
68938;SDS011;59064;45.294;11.816;2023-04-24T06:47:33;11.60;;;8.70;;
68938;SDS011;59064;45.294;11.816;2023-04-24T06:49:59;12.70;;;6.30;;
68938;SDS011;59064;45.294;11.816;2023-04-24T06:52:25;11.10;;;6.00;;
68938;SDS011;59064;45.294;11.816;2023-04-24T06:54:59;7.60;;;4.50;;
68938;SDS011;59064;45.294;11.816;2023-04-24T06:57:30;8.50;;;5.80;;
68938;SDS011;59064;45.294;11.816;2023-04-24T06:59:57;10.60;;;6.80;;
68938;SDS011;59064;45.294;11.816;2023-04-24T07:02:23;8.90;;;5.00;;
68938;SDS011;59064;45.294;11.816;2023-04-24T07:04:49;7.00;;;3.60;;
68938;SDS011;59064;45.294;11.816;2023-04-24T07:07:14;5.60;;;3.30;;
68938;SDS011;59064;45.294;11.816;2023-04-24T07:09:40;4.30;;;2.00;;
68938;SDS011;59064;45.294;11.816;2023-04-24T07:12:10;7.20;;;3.20;;
68938;SDS011;59064;45.294;11.816;2023-04-24T07:14:38;5.10;;;3.40;;
68938;SDS011;59064;45.294;11.816;2023-04-24T07:17:05;5.90;;;3.80;;
68938;SDS011;59064;45.294;11.816;2023-04-24T07:19:32;5.80;;;4.00;;
68938;SDS011;59064;45.294;11.816;2023-04-24T07:21:59;8.90;;;4.30;;
68938;SDS011;59064;45.294;11.816;2023-04-24T07:24:25;7.60;;;4.70;;
68938;SDS011;59064;45.294;11.816;2023-04-24T07:26:53;6.90;;;5.00;;
68938;SDS011;59064;45.294;11.816;2023-04-24T07:29:19;7.30;;;5.20;;
68938;SDS011;59064;45.294;11.816;2023-04-24T07:31:46;6.50;;;4.90;;
68938;SDS011;59064;45.294;11.816;2023-04-24T07:34:12;4.90;;;2.90;;
68938;SDS011;59064;45.294;11.816;2023-04-24T07:36:37;5.00;;;3.40;;
68938;SDS011;59064;45.294;11.816;2023-04-24T07:39:04;5.50;;;2.70;;
68938;SDS011;59064;45.294;11.816;2023-04-24T07:41:31;5.80;;;3.00;;
68938;SDS011;59064;45.294;11.816;2023-04-24T07:43:56;5.20;;;3.00;;
68938;SDS011;59064;45.294;11.816;2023-04-24T07:46:25;4.30;;;2.70;;
68938;SDS011;59064;45.294;11.816;2023-04-24T07:48:55;5.50;;;2.70;;
68938;SDS011;59064;45.294;11.816;2023-04-24T07:51:22;4.90;;;2.70;;
68938;SDS011;59064;45.294;11.816;2023-04-24T07:53:47;5.00;;;3.00;;
68938;SDS011;59064;45.294;11.816;2023-04-24T07:56:13;5.00;;;3.10;;
68938;SDS011;59064;45.294;11.816;2023-04-24T07:58:38;4.80;;;3.00;;
68938;SDS011;59064;45.294;11.816;2023-04-24T08:01:06;5.40;;;3.00;;
68938;SDS011;59064;45.294;11.816;2023-04-24T08:03:32;4.80;;;2.60;;
68938;SDS011;59064;45.294;11.816;2023-04-24T08:05:57;3.90;;;2.40;;
68938;SDS011;59064;45.294;11.816;2023-04-24T08:08:24;4.10;;;2.50;;
68938;SDS011;59064;45.294;11.816;2023-04-24T08:10:50;3.40;;;1.80;;
68938;SDS011;59064;45.294;11.816;2023-04-24T08:13:15;2.90;;;1.60;;
68938;SDS011;59064;45.294;11.816;2023-04-24T08:15:41;2.70;;;1.20;;
68938;SDS011;59064;45.294;11.816;2023-04-24T08:18:07;2.80;;;1.10;;
68938;SDS011;59064;45.294;11.816;2023-04-24T08:20:32;3.50;;;1.10;;
68938;SDS011;59064;45.294;11.816;2023-04-24T08:22:58;2.20;;;0.90;;
68938;SDS011;59064;45.294;11.816;2023-04-24T08:25:24;1.70;;;0.80;;
68938;SDS011;59064;45.294;11.816;2023-04-24T08:27:51;2.00;;;0.80;;
68938;SDS011;59064;45.294;11.816;2023-04-24T08:30:17;1.80;;;0.80;;
68938;SDS011;59064;45.294;11.816;2023-04-24T08:32:43;1.90;;;0.80;;
68938;SDS011;59064;45.294;11.816;2023-04-24T08:35:09;1.80;;;0.90;;
68938;SDS011;59064;45.294;11.816;2023-04-24T08:37:35;1.70;;;0.80;;
68938;SDS011;59064;45.294;11.816;2023-04-24T08:40:03;1.60;;;0.70;;
68938;SDS011;59064;45.294;11.816;2023-04-24T08:42:37;1.80;;;0.80;;
68938;SDS011;59064;45.294;11.816;2023-04-24T08:45:06;2.00;;;0.80;;
68938;SDS011;59064;45.294;11.816;2023-04-24T08:47:32;1.90;;;0.80;;
68938;SDS011;59064;45.294;11.816;2023-04-24T08:49:58;1.80;;;0.80;;
68938;SDS011;59064;45.294;11.816;2023-04-24T08:52:29;1.60;;;0.80;;
68938;SDS011;59064;45.294;11.816;2023-04-24T08:54:55;2.70;;;1.00;;
68938;SDS011;59064;45.294;11.816;2023-04-24T08:57:22;1.80;;;0.80;;
68938;SDS011;59064;45.294;11.816;2023-04-24T08:59:58;2.30;;;1.10;;
68938;SDS011;59064;45.294;11.816;2023-04-24T09:02:24;2.90;;;1.30;;
68938;SDS011;59064;45.294;11.816;2023-04-24T09:04:53;2.60;;;1.10;;
68938;SDS011;59064;45.294;11.816;2023-04-24T09:07:20;2.50;;;1.20;;
68938;SDS011;59064;45.294;11.816;2023-04-24T09:09:50;3.10;;;1.40;;
68938;SDS011;59064;45.294;11.816;2023-04-24T09:12:17;2.50;;;1.20;;
68938;SDS011;59064;45.294;11.816;2023-04-24T09:14:44;9.20;;;1.60;;
68938;SDS011;59064;45.294;11.816;2023-04-24T09:17:11;2.50;;;1.20;;
68938;SDS011;59064;45.294;11.816;2023-04-24T09:19:37;2.70;;;1.30;;
68938;SDS011;59064;45.294;11.816;2023-04-24T09:22:06;3.50;;;1.60;;
68938;SDS011;59064;45.294;11.816;2023-04-24T09:24:33;3.70;;;1.80;;
68938;SDS011;59064;45.294;11.816;2023-04-24T09:27:00;3.50;;;1.70;;
68938;SDS011;59064;45.294;11.816;2023-04-24T09:29:29;4.80;;;2.50;;
68938;SDS011;59064;45.294;11.816;2023-04-24T09:31:55;3.30;;;1.60;;
68938;SDS011;59064;45.294;11.816;2023-04-24T09:34:21;3.00;;;1.50;;
68938;SDS011;59064;45.294;11.816;2023-04-24T09:36:49;2.90;;;1.20;;
68938;SDS011;59064;45.294;11.816;2023-04-24T09:39:15;3.50;;;1.30;;
68938;SDS011;59064;45.294;11.816;2023-04-24T09:47:05;2.10;;;1.10;;
68938;SDS011;59064;45.294;11.816;2023-04-24T09:49:34;2.30;;;1.10;;
68938;SDS011;59064;45.294;11.816;2023-04-24T09:52:06;3.10;;;1.20;;
68938;SDS011;59064;45.294;11.816;2023-04-24T09:54:35;2.80;;;1.10;;
68938;SDS011;59064;45.294;11.816;2023-04-24T09:57:04;2.70;;;1.20;;
68938;SDS011;59064;45.294;11.816;2023-04-24T09:59:33;2.50;;;1.30;;
68938;SDS011;59064;45.294;11.816;2023-04-24T10:01:59;2.60;;;1.20;;
68938;SDS011;59064;45.294;11.816;2023-04-24T10:04:25;2.80;;;1.10;;
68938;SDS011;59064;45.294;11.816;2023-04-24T10:06:53;2.20;;;1.00;;
68938;SDS011;59064;45.294;11.816;2023-04-24T10:09:24;2.20;;;1.10;;
68938;SDS011;59064;45.294;11.816;2023-04-24T10:11:52;1.80;;;0.80;;
68938;SDS011;59064;45.294;11.816;2023-04-24T10:14:22;2.00;;;0.90;;
68938;SDS011;59064;45.294;11.816;2023-04-24T10:16:52;2.60;;;1.00;;
68938;SDS011;59064;45.294;11.816;2023-04-24T10:19:19;1.80;;;0.80;;
68938;SDS011;59064;45.294;11.816;2023-04-24T10:21:47;1.60;;;0.70;;
68938;SDS011;59064;45.294;11.816;2023-04-24T10:24:15;2.20;;;1.00;;
68938;SDS011;59064;45.294;11.816;2023-04-24T10:26:45;2.00;;;0.90;;
68938;SDS011;59064;45.294;11.816;2023-04-24T10:29:13;2.20;;;0.90;;
68938;SDS011;59064;45.294;11.816;2023-04-24T10:31:42;1.80;;;0.80;;
68938;SDS011;59064;45.294;11.816;2023-04-24T10:34:11;2.20;;;0.80;;
68938;SDS011;59064;45.294;11.816;2023-04-24T10:39:32;1.60;;;0.70;;
68938;SDS011;59064;45.294;11.816;2023-04-24T10:41:58;1.90;;;0.80;;
68938;SDS011;59064;45.294;11.816;2023-04-24T10:44:24;2.50;;;0.90;;
68938;SDS011;59064;45.294;11.816;2023-04-24T10:46:54;1.90;;;0.80;;
68938;SDS011;59064;45.294;11.816;2023-04-24T10:49:28;1.60;;;0.80;;
68938;SDS011;59064;45.294;11.816;2023-04-24T10:51:59;1.70;;;1.00;;
68938;SDS011;59064;45.294;11.816;2023-04-24T10:54:46;1.40;;;0.60;;
68938;SDS011;59064;45.294;11.816;2023-04-24T10:59:51;2.10;;;0.90;;
68938;SDS011;59064;45.294;11.816;2023-04-24T11:02:37;1.50;;;0.70;;
68938;SDS011;59064;45.294;11.816;2023-04-24T11:05:09;1.60;;;0.70;;
68938;SDS011;59064;45.294;11.816;2023-04-24T11:10:39;1.90;;;0.80;;
68938;SDS011;59064;45.294;11.816;2023-04-24T11:13:06;1.10;;;0.50;;
68938;SDS011;59064;45.294;11.816;2023-04-24T11:15:32;1.60;;;0.80;;
68938;SDS011;59064;45.294;11.816;2023-04-24T11:17:57;1.40;;;0.60;;
68938;SDS011;59064;45.294;11.816;2023-04-24T11:20:29;1.90;;;0.80;;
68938;SDS011;59064;45.294;11.816;2023-04-24T11:22:55;2.00;;;0.80;;
68938;SDS011;59064;45.294;11.816;2023-04-24T11:25:30;1.80;;;0.70;;
68938;SDS011;59064;45.294;11.816;2023-04-24T11:28:05;3.00;;;1.40;;
68938;SDS011;59064;45.294;11.816;2023-04-24T11:30:32;2.80;;;1.40;;
68938;SDS011;59064;45.294;11.816;2023-04-24T11:33:03;3.00;;;1.20;;
68938;SDS011;59064;45.294;11.816;2023-04-24T11:35:30;2.50;;;1.10;;
68938;SDS011;59064;45.294;11.816;2023-04-24T11:38:02;3.70;;;1.40;;
68938;SDS011;59064;45.294;11.816;2023-04-24T11:40:28;3.40;;;1.30;;
68938;SDS011;59064;45.294;11.816;2023-04-24T11:42:54;4.10;;;2.00;;
68938;SDS011;59064;45.294;11.816;2023-04-24T11:45:25;3.70;;;1.90;;
68938;SDS011;59064;45.294;11.816;2023-04-24T11:47:57;3.30;;;1.70;;
68938;SDS011;59064;45.294;11.816;2023-04-24T11:50:24;3.10;;;1.50;;
68938;SDS011;59064;45.294;11.816;2023-04-24T11:52:51;3.50;;;1.40;;
68938;SDS011;59064;45.294;11.816;2023-04-24T11:57:52;3.00;;;1.40;;
68938;SDS011;59064;45.294;11.816;2023-04-24T12:00:25;2.10;;;1.00;;
68938;SDS011;59064;45.294;11.816;2023-04-24T12:03:02;2.90;;;1.20;;
68938;SDS011;59064;45.294;11.816;2023-04-24T12:05:32;3.20;;;1.50;;
68938;SDS011;59064;45.294;11.816;2023-04-24T12:07:59;3.80;;;1.50;;
68938;SDS011;59064;45.294;11.816;2023-04-24T12:10:26;2.70;;;1.40;;
68938;SDS011;59064;45.294;11.816;2023-04-24T12:12:53;2.80;;;1.60;;
68938;SDS011;59064;45.294;11.816;2023-04-24T12:15:20;3.40;;;1.40;;
68938;SDS011;59064;45.294;11.816;2023-04-24T12:17:46;3.30;;;1.60;;
68938;SDS011;59064;45.294;11.816;2023-04-24T12:20:13;2.80;;;1.60;;
68938;SDS011;59064;45.294;11.816;2023-04-24T12:22:53;3.40;;;1.40;;
68938;SDS011;59064;45.294;11.816;2023-04-24T12:25:21;2.80;;;1.40;;
68938;SDS011;59064;45.294;11.816;2023-04-24T12:28:10;2.90;;;1.40;;
68938;SDS011;59064;45.294;11.816;2023-04-24T12:30:44;3.50;;;1.30;;
68938;SDS011;59064;45.294;11.816;2023-04-24T12:33:20;3.60;;;1.40;;
68938;SDS011;59064;45.294;11.816;2023-04-24T12:35:47;2.50;;;1.10;;
68938;SDS011;59064;45.294;11.816;2023-04-24T12:38:15;2.90;;;1.40;;
68938;SDS011;59064;45.294;11.816;2023-04-24T12:40:43;3.20;;;1.20;;
68938;SDS011;59064;45.294;11.816;2023-04-24T12:43:18;2.80;;;1.10;;
68938;SDS011;59064;45.294;11.816;2023-04-24T12:45:45;3.90;;;1.40;;
68938;SDS011;59064;45.294;11.816;2023-04-24T12:48:12;3.00;;;1.30;;
68938;SDS011;59064;45.294;11.816;2023-04-24T12:50:41;3.30;;;1.40;;
68938;SDS011;59064;45.294;11.816;2023-04-24T12:53:08;3.40;;;1.80;;
68938;SDS011;59064;45.294;11.816;2023-04-24T12:55:34;3.20;;;1.50;;
68938;SDS011;59064;45.294;11.816;2023-04-24T12:58:01;3.50;;;1.70;;
68938;SDS011;59064;45.294;11.816;2023-04-24T13:00:28;2.90;;;1.50;;
68938;SDS011;59064;45.294;11.816;2023-04-24T13:02:53;3.40;;;1.40;;
68938;SDS011;59064;45.294;11.816;2023-04-24T13:05:19;2.70;;;1.40;;
68938;SDS011;59064;45.294;11.816;2023-04-24T13:07:45;2.70;;;1.40;;
68938;SDS011;59064;45.294;11.816;2023-04-24T13:10:12;3.90;;;1.30;;
68938;SDS011;59064;45.294;11.816;2023-04-24T13:12:38;2.50;;;1.40;;
68938;SDS011;59064;45.294;11.816;2023-04-24T13:15:05;4.10;;;1.10;;
68938;SDS011;59064;45.294;11.816;2023-04-24T13:17:31;3.50;;;1.40;;
68938;SDS011;59064;45.294;11.816;2023-04-24T13:19:58;2.40;;;1.30;;
68938;SDS011;59064;45.294;11.816;2023-04-24T13:22:23;2.80;;;1.30;;
68938;SDS011;59064;45.294;11.816;2023-04-24T13:24:50;4.10;;;1.60;;
68938;SDS011;59064;45.294;11.816;2023-04-24T13:27:16;3.40;;;1.50;;
68938;SDS011;59064;45.294;11.816;2023-04-24T13:29:42;4.10;;;1.50;;
68938;SDS011;59064;45.294;11.816;2023-04-24T13:32:08;2.50;;;1.30;;
68938;SDS011;59064;45.294;11.816;2023-04-24T13:34:35;3.80;;;1.50;;
68938;SDS011;59064;45.294;11.816;2023-04-24T13:37:02;3.10;;;1.30;;
68938;SDS011;59064;45.294;11.816;2023-04-24T13:39:32;2.30;;;1.20;;
68938;SDS011;59064;45.294;11.816;2023-04-24T13:41:58;2.80;;;1.20;;
68938;SDS011;59064;45.294;11.816;2023-04-24T13:44:25;5.10;;;1.40;;
68938;SDS011;59064;45.294;11.816;2023-04-24T13:46:53;3.00;;;1.40;;
68938;SDS011;59064;45.294;11.816;2023-04-24T13:49:23;3.60;;;1.40;;
68938;SDS011;59064;45.294;11.816;2023-04-24T13:51:55;2.70;;;1.20;;
68938;SDS011;59064;45.294;11.816;2023-04-24T13:54:21;2.80;;;1.30;;
68938;SDS011;59064;45.294;11.816;2023-04-24T13:56:49;2.80;;;1.10;;
68938;SDS011;59064;45.294;11.816;2023-04-24T13:59:21;2.90;;;1.40;;
68938;SDS011;59064;45.294;11.816;2023-04-24T14:01:47;3.90;;;1.20;;
68938;SDS011;59064;45.294;11.816;2023-04-24T14:04:14;2.50;;;1.20;;
68938;SDS011;59064;45.294;11.816;2023-04-24T14:06:40;2.00;;;1.00;;
68938;SDS011;59064;45.294;11.816;2023-04-24T14:09:06;2.30;;;0.90;;
68938;SDS011;59064;45.294;11.816;2023-04-24T14:11:32;1.90;;;0.80;;
68938;SDS011;59064;45.294;11.816;2023-04-24T14:13:58;2.10;;;0.90;;
68938;SDS011;59064;45.294;11.816;2023-04-24T14:16:26;2.40;;;0.80;;
68938;SDS011;59064;45.294;11.816;2023-04-24T14:18:51;2.10;;;0.80;;
68938;SDS011;59064;45.294;11.816;2023-04-24T14:21:17;1.90;;;0.80;;
68938;SDS011;59064;45.294;11.816;2023-04-24T14:23:43;2.20;;;0.90;;
68938;SDS011;59064;45.294;11.816;2023-04-24T14:26:12;1.30;;;0.50;;
68938;SDS011;59064;45.294;11.816;2023-04-24T14:28:42;2.10;;;0.80;;
68938;SDS011;59064;45.294;11.816;2023-04-24T14:31:07;1.60;;;0.60;;
68938;SDS011;59064;45.294;11.816;2023-04-24T14:33:35;1.70;;;0.50;;
68938;SDS011;59064;45.294;11.816;2023-04-24T14:36:01;1.30;;;0.60;;
68938;SDS011;59064;45.294;11.816;2023-04-24T14:38:28;1.90;;;0.60;;
68938;SDS011;59064;45.294;11.816;2023-04-24T14:40:54;1.60;;;0.60;;